sensor_id;sensor_type;location;lat;lon;timestamp;P1;durP1;ratioP1;P2;durP2;ratioP2
50126;SDS011;36024;47.974;16.398;2023-09-19T00:01:03;2.17;;;0.50;;
50126;SDS011;36024;47.974;16.398;2023-09-19T00:03:34;1.85;;;0.38;;
50126;SDS011;36024;47.974;16.398;2023-09-19T00:06:06;0.65;;;0.30;;
50126;SDS011;36024;47.974;16.398;2023-09-19T00:08:37;1.35;;;0.40;;
50126;SDS011;36024;47.974;16.398;2023-09-19T00:11:07;1.02;;;0.52;;
50126;SDS011;36024;47.974;16.398;2023-09-19T00:13:36;2.58;;;0.40;;
50126;SDS011;36024;47.974;16.398;2023-09-19T00:16:08;1.42;;;0.57;;
50126;SDS011;36024;47.974;16.398;2023-09-19T00:18:41;0.70;;;0.40;;
50126;SDS011;36024;47.974;16.398;2023-09-19T00:21:14;0.53;;;0.40;;
50126;SDS011;36024;47.974;16.398;2023-09-19T00:23:49;1.00;;;0.50;;
50126;SDS011;36024;47.974;16.398;2023-09-19T00:26:24;0.53;;;0.30;;
50126;SDS011;36024;47.974;16.398;2023-09-19T00:28:58;0.47;;;0.37;;
50126;SDS011;36024;47.974;16.398;2023-09-19T00:31:31;0.73;;;0.40;;
50126;SDS011;36024;47.974;16.398;2023-09-19T00:33:58;0.50;;;0.30;;
50126;SDS011;36024;47.974;16.398;2023-09-19T00:36:28;0.53;;;0.40;;
50126;SDS011;36024;47.974;16.398;2023-09-19T00:38:56;1.13;;;0.40;;
50126;SDS011;36024;47.974;16.398;2023-09-19T00:41:26;0.60;;;0.50;;
50126;SDS011;36024;47.974;16.398;2023-09-19T00:43:58;0.43;;;0.40;;
50126;SDS011;36024;47.974;16.398;2023-09-19T00:46:31;0.93;;;0.40;;
50126;SDS011;36024;47.974;16.398;2023-09-19T00:49:06;0.40;;;0.40;;
50126;SDS011;36024;47.974;16.398;2023-09-19T00:51:40;0.53;;;0.43;;
50126;SDS011;36024;47.974;16.398;2023-09-19T00:54:14;2.80;;;0.40;;
50126;SDS011;36024;47.974;16.398;2023-09-19T00:56:45;1.17;;;0.50;;
50126;SDS011;36024;47.974;16.398;2023-09-19T00:59:13;0.60;;;0.30;;
50126;SDS011;36024;47.974;16.398;2023-09-19T01:01:48;0.47;;;0.40;;
50126;SDS011;36024;47.974;16.398;2023-09-19T01:04:23;0.67;;;0.40;;
50126;SDS011;36024;47.974;16.398;2023-09-19T01:06:53;0.73;;;0.40;;
50126;SDS011;36024;47.974;16.398;2023-09-19T01:09:22;0.33;;;0.30;;
50126;SDS011;36024;47.974;16.398;2023-09-19T01:11:55;0.40;;;0.30;;
50126;SDS011;36024;47.974;16.398;2023-09-19T01:17:16;0.70;;;0.53;;
50126;SDS011;36024;47.974;16.398;2023-09-19T01:20:06;0.80;;;0.40;;
50126;SDS011;36024;47.974;16.398;2023-09-19T01:31:09;0.97;;;0.53;;
50126;SDS011;36024;47.974;16.398;2023-09-19T01:33:53;1.43;;;0.70;;
50126;SDS011;36024;47.974;16.398;2023-09-19T01:36:34;1.57;;;0.70;;
50126;SDS011;36024;47.974;16.398;2023-09-19T01:39:06;0.70;;;0.60;;
50126;SDS011;36024;47.974;16.398;2023-09-19T01:44:18;1.90;;;0.80;;
50126;SDS011;36024;47.974;16.398;2023-09-19T01:47:16;1.73;;;0.50;;
50126;SDS011;36024;47.974;16.398;2023-09-19T01:49:55;1.60;;;0.80;;
50126;SDS011;36024;47.974;16.398;2023-09-19T01:52:30;1.53;;;0.70;;
50126;SDS011;36024;47.974;16.398;2023-09-19T01:55:05;0.80;;;0.60;;
50126;SDS011;36024;47.974;16.398;2023-09-19T01:57:42;1.83;;;0.80;;
50126;SDS011;36024;47.974;16.398;2023-09-19T02:00:32;1.90;;;1.00;;
50126;SDS011;36024;47.974;16.398;2023-09-19T02:03:01;0.97;;;0.77;;
50126;SDS011;36024;47.974;16.398;2023-09-19T02:05:32;1.60;;;0.50;;
50126;SDS011;36024;47.974;16.398;2023-09-19T02:08:00;1.17;;;0.70;;
50126;SDS011;36024;47.974;16.398;2023-09-19T02:10:34;1.67;;;0.80;;
50126;SDS011;36024;47.974;16.398;2023-09-19T02:13:06;2.60;;;0.73;;
50126;SDS011;36024;47.974;16.398;2023-09-19T02:15:35;1.53;;;0.80;;
50126;SDS011;36024;47.974;16.398;2023-09-19T02:18:05;2.30;;;0.80;;
50126;SDS011;36024;47.974;16.398;2023-09-19T02:20:38;1.40;;;0.70;;
50126;SDS011;36024;47.974;16.398;2023-09-19T02:23:08;1.63;;;0.60;;
50126;SDS011;36024;47.974;16.398;2023-09-19T02:25:43;1.67;;;0.70;;
50126;SDS011;36024;47.974;16.398;2023-09-19T02:28:29;1.23;;;0.60;;
50126;SDS011;36024;47.974;16.398;2023-09-19T02:30:58;1.50;;;0.83;;
50126;SDS011;36024;47.974;16.398;2023-09-19T02:33:32;0.90;;;0.90;;
50126;SDS011;36024;47.974;16.398;2023-09-19T02:36:01;1.43;;;0.97;;
50126;SDS011;36024;47.974;16.398;2023-09-19T02:38:30;0.90;;;0.73;;
50126;SDS011;36024;47.974;16.398;2023-09-19T02:40:58;1.50;;;0.80;;
50126;SDS011;36024;47.974;16.398;2023-09-19T02:43:26;1.10;;;0.90;;
50126;SDS011;36024;47.974;16.398;2023-09-19T02:45:58;1.43;;;0.70;;
50126;SDS011;36024;47.974;16.398;2023-09-19T02:48:27;2.53;;;0.80;;
50126;SDS011;36024;47.974;16.398;2023-09-19T02:50:59;0.73;;;0.63;;
50126;SDS011;36024;47.974;16.398;2023-09-19T02:53:35;1.90;;;0.80;;
50126;SDS011;36024;47.974;16.398;2023-09-19T02:56:08;1.30;;;0.80;;
50126;SDS011;36024;47.974;16.398;2023-09-19T02:58:41;1.40;;;0.90;;
50126;SDS011;36024;47.974;16.398;2023-09-19T03:01:22;1.30;;;0.70;;
50126;SDS011;36024;47.974;16.398;2023-09-19T03:03:50;1.10;;;0.80;;
50126;SDS011;36024;47.974;16.398;2023-09-19T03:06:19;1.63;;;0.73;;
50126;SDS011;36024;47.974;16.398;2023-09-19T03:08:51;3.97;;;0.87;;
50126;SDS011;36024;47.974;16.398;2023-09-19T03:11:23;1.50;;;0.90;;
50126;SDS011;36024;47.974;16.398;2023-09-19T03:13:55;2.00;;;0.93;;
50126;SDS011;36024;47.974;16.398;2023-09-19T03:16:26;1.17;;;0.80;;
50126;SDS011;36024;47.974;16.398;2023-09-19T03:19:00;2.10;;;0.90;;
50126;SDS011;36024;47.974;16.398;2023-09-19T03:21:31;1.53;;;0.83;;
50126;SDS011;36024;47.974;16.398;2023-09-19T03:23:59;1.47;;;0.97;;
50126;SDS011;36024;47.974;16.398;2023-09-19T03:26:32;1.33;;;0.80;;
50126;SDS011;36024;47.974;16.398;2023-09-19T03:29:03;1.43;;;1.00;;
50126;SDS011;36024;47.974;16.398;2023-09-19T03:31:33;1.87;;;0.83;;
50126;SDS011;36024;47.974;16.398;2023-09-19T03:34:08;2.97;;;0.97;;
50126;SDS011;36024;47.974;16.398;2023-09-19T03:36:38;0.87;;;0.87;;
50126;SDS011;36024;47.974;16.398;2023-09-19T03:39:09;1.53;;;1.10;;
50126;SDS011;36024;47.974;16.398;2023-09-19T03:41:37;0.80;;;0.80;;
50126;SDS011;36024;47.974;16.398;2023-09-19T03:44:08;2.20;;;1.07;;
50126;SDS011;36024;47.974;16.398;2023-09-19T03:46:36;2.03;;;0.93;;
50126;SDS011;36024;47.974;16.398;2023-09-19T03:49:06;1.53;;;0.70;;
50126;SDS011;36024;47.974;16.398;2023-09-19T03:51:35;1.03;;;0.70;;
50126;SDS011;36024;47.974;16.398;2023-09-19T03:54:08;1.80;;;0.80;;
50126;SDS011;36024;47.974;16.398;2023-09-19T03:56:37;0.70;;;0.70;;
50126;SDS011;36024;47.974;16.398;2023-09-19T03:59:06;1.30;;;0.90;;
50126;SDS011;36024;47.974;16.398;2023-09-19T04:01:36;2.50;;;0.90;;
50126;SDS011;36024;47.974;16.398;2023-09-19T04:04:03;0.80;;;0.80;;
50126;SDS011;36024;47.974;16.398;2023-09-19T04:06:36;1.43;;;0.70;;
50126;SDS011;36024;47.974;16.398;2023-09-19T04:09:04;2.13;;;0.80;;
50126;SDS011;36024;47.974;16.398;2023-09-19T04:11:37;2.03;;;1.00;;
50126;SDS011;36024;47.974;16.398;2023-09-19T04:14:06;1.60;;;0.80;;
50126;SDS011;36024;47.974;16.398;2023-09-19T04:16:35;1.80;;;0.87;;
50126;SDS011;36024;47.974;16.398;2023-09-19T04:19:14;1.20;;;0.90;;
50126;SDS011;36024;47.974;16.398;2023-09-19T04:21:51;1.17;;;1.00;;
50126;SDS011;36024;47.974;16.398;2023-09-19T04:24:19;2.17;;;1.10;;
50126;SDS011;36024;47.974;16.398;2023-09-19T04:26:48;1.63;;;0.93;;
50126;SDS011;36024;47.974;16.398;2023-09-19T04:29:16;1.20;;;1.00;;
50126;SDS011;36024;47.974;16.398;2023-09-19T04:32:07;2.73;;;1.00;;
50126;SDS011;36024;47.974;16.398;2023-09-19T04:34:37;1.17;;;0.77;;
50126;SDS011;36024;47.974;16.398;2023-09-19T04:37:10;1.13;;;0.87;;
50126;SDS011;36024;47.974;16.398;2023-09-19T04:39:40;0.90;;;0.80;;
50126;SDS011;36024;47.974;16.398;2023-09-19T04:42:07;2.83;;;0.93;;
50126;SDS011;36024;47.974;16.398;2023-09-19T04:44:35;3.07;;;1.27;;
50126;SDS011;36024;47.974;16.398;2023-09-19T04:47:06;2.17;;;1.23;;
50126;SDS011;36024;47.974;16.398;2023-09-19T04:49:34;2.60;;;1.00;;
50126;SDS011;36024;47.974;16.398;2023-09-19T04:52:02;2.20;;;1.13;;
50126;SDS011;36024;47.974;16.398;2023-09-19T04:54:30;1.33;;;1.20;;
50126;SDS011;36024;47.974;16.398;2023-09-19T04:57:01;1.70;;;1.17;;
50126;SDS011;36024;47.974;16.398;2023-09-19T04:59:33;2.17;;;1.40;;
50126;SDS011;36024;47.974;16.398;2023-09-19T05:02:06;1.33;;;1.20;;
50126;SDS011;36024;47.974;16.398;2023-09-19T05:04:38;1.47;;;1.20;;
50126;SDS011;36024;47.974;16.398;2023-09-19T05:07:16;3.13;;;1.30;;
50126;SDS011;36024;47.974;16.398;2023-09-19T05:09:46;2.73;;;1.30;;
50126;SDS011;36024;47.974;16.398;2023-09-19T05:12:17;1.80;;;1.10;;
50126;SDS011;36024;47.974;16.398;2023-09-19T05:14:50;2.17;;;1.27;;
50126;SDS011;36024;47.974;16.398;2023-09-19T05:17:22;1.30;;;1.10;;
50126;SDS011;36024;47.974;16.398;2023-09-19T05:19:52;1.37;;;1.20;;
50126;SDS011;36024;47.974;16.398;2023-09-19T05:22:28;1.37;;;1.03;;
50126;SDS011;36024;47.974;16.398;2023-09-19T05:25:02;2.10;;;1.13;;
50126;SDS011;36024;47.974;16.398;2023-09-19T05:27:33;2.13;;;1.13;;
50126;SDS011;36024;47.974;16.398;2023-09-19T05:30:02;2.67;;;1.27;;
50126;SDS011;36024;47.974;16.398;2023-09-19T05:32:30;1.80;;;1.40;;
50126;SDS011;36024;47.974;16.398;2023-09-19T05:34:57;2.13;;;1.10;;
50126;SDS011;36024;47.974;16.398;2023-09-19T05:37:27;2.03;;;1.20;;
50126;SDS011;36024;47.974;16.398;2023-09-19T05:40:00;2.10;;;1.30;;
50126;SDS011;36024;47.974;16.398;2023-09-19T05:42:34;1.70;;;1.50;;
50126;SDS011;36024;47.974;16.398;2023-09-19T05:45:12;2.27;;;1.50;;
50126;SDS011;36024;47.974;16.398;2023-09-19T05:47:52;2.33;;;1.30;;
50126;SDS011;36024;47.974;16.398;2023-09-19T05:50:22;1.47;;;1.30;;
50126;SDS011;36024;47.974;16.398;2023-09-19T05:52:52;1.93;;;1.20;;
50126;SDS011;36024;47.974;16.398;2023-09-19T05:55:23;2.23;;;1.20;;
50126;SDS011;36024;47.974;16.398;2023-09-19T05:58:13;1.77;;;1.10;;
50126;SDS011;36024;47.974;16.398;2023-09-19T06:00:45;3.30;;;1.70;;
50126;SDS011;36024;47.974;16.398;2023-09-19T06:03:18;3.07;;;1.47;;
50126;SDS011;36024;47.974;16.398;2023-09-19T06:05:49;1.93;;;1.50;;
50126;SDS011;36024;47.974;16.398;2023-09-19T06:08:25;1.50;;;1.30;;
50126;SDS011;36024;47.974;16.398;2023-09-19T06:10:56;2.20;;;1.60;;
50126;SDS011;36024;47.974;16.398;2023-09-19T06:13:28;5.83;;;1.93;;
50126;SDS011;36024;47.974;16.398;2023-09-19T06:15:58;4.33;;;1.67;;
50126;SDS011;36024;47.974;16.398;2023-09-19T06:18:27;5.27;;;2.00;;
50126;SDS011;36024;47.974;16.398;2023-09-19T06:20:56;6.27;;;2.13;;
50126;SDS011;36024;47.974;16.398;2023-09-19T06:23:26;5.10;;;1.83;;
50126;SDS011;36024;47.974;16.398;2023-09-19T06:26:01;2.90;;;1.80;;
50126;SDS011;36024;47.974;16.398;2023-09-19T06:28:28;5.13;;;2.03;;
50126;SDS011;36024;47.974;16.398;2023-09-19T06:31:02;4.10;;;2.03;;
50126;SDS011;36024;47.974;16.398;2023-09-19T06:33:40;3.20;;;2.00;;
50126;SDS011;36024;47.974;16.398;2023-09-19T06:36:10;1.70;;;1.60;;
50126;SDS011;36024;47.974;16.398;2023-09-19T06:38:47;2.10;;;1.90;;
50126;SDS011;36024;47.974;16.398;2023-09-19T06:41:18;1.87;;;1.57;;
50126;SDS011;36024;47.974;16.398;2023-09-19T06:43:46;2.63;;;1.50;;
50126;SDS011;36024;47.974;16.398;2023-09-19T06:46:26;2.27;;;1.30;;
50126;SDS011;36024;47.974;16.398;2023-09-19T06:49:00;2.50;;;1.30;;
50126;SDS011;36024;47.974;16.398;2023-09-19T06:51:35;1.60;;;1.20;;
50126;SDS011;36024;47.974;16.398;2023-09-19T06:54:10;1.40;;;1.20;;
50126;SDS011;36024;47.974;16.398;2023-09-19T06:56:40;2.43;;;1.30;;
50126;SDS011;36024;47.974;16.398;2023-09-19T06:59:08;2.20;;;1.37;;
50126;SDS011;36024;47.974;16.398;2023-09-19T07:01:44;2.80;;;1.33;;
50126;SDS011;36024;47.974;16.398;2023-09-19T07:04:12;2.40;;;1.30;;
50126;SDS011;36024;47.974;16.398;2023-09-19T07:06:43;3.73;;;1.37;;
50126;SDS011;36024;47.974;16.398;2023-09-19T07:09:14;1.80;;;1.37;;
50126;SDS011;36024;47.974;16.398;2023-09-19T07:11:42;2.57;;;1.70;;
50126;SDS011;36024;47.974;16.398;2023-09-19T07:14:10;2.67;;;1.27;;
50126;SDS011;36024;47.974;16.398;2023-09-19T07:16:45;3.63;;;1.90;;
50126;SDS011;36024;47.974;16.398;2023-09-19T07:19:15;2.63;;;1.60;;
50126;SDS011;36024;47.974;16.398;2023-09-19T07:21:43;3.47;;;1.53;;
50126;SDS011;36024;47.974;16.398;2023-09-19T07:24:10;5.07;;;1.67;;
50126;SDS011;36024;47.974;16.398;2023-09-19T07:26:39;2.43;;;1.53;;
50126;SDS011;36024;47.974;16.398;2023-09-19T07:29:07;3.10;;;1.40;;
50126;SDS011;36024;47.974;16.398;2023-09-19T07:31:38;1.73;;;1.20;;
50126;SDS011;36024;47.974;16.398;2023-09-19T07:34:06;1.60;;;1.20;;
50126;SDS011;36024;47.974;16.398;2023-09-19T07:36:36;1.43;;;1.10;;
50126;SDS011;36024;47.974;16.398;2023-09-19T07:39:08;1.33;;;1.23;;
50126;SDS011;36024;47.974;16.398;2023-09-19T07:41:50;1.40;;;1.20;;
50126;SDS011;36024;47.974;16.398;2023-09-19T07:44:17;2.70;;;1.40;;
50126;SDS011;36024;47.974;16.398;2023-09-19T07:46:50;2.83;;;1.37;;
50126;SDS011;36024;47.974;16.398;2023-09-19T07:49:22;2.00;;;1.13;;
50126;SDS011;36024;47.974;16.398;2023-09-19T07:51:55;2.50;;;1.20;;
50126;SDS011;36024;47.974;16.398;2023-09-19T07:54:25;1.80;;;1.20;;
50126;SDS011;36024;47.974;16.398;2023-09-19T07:56:55;2.15;;;1.40;;
50126;SDS011;36024;47.974;16.398;2023-09-19T07:59:23;1.30;;;1.20;;
50126;SDS011;36024;47.974;16.398;2023-09-19T08:01:52;2.20;;;1.17;;
50126;SDS011;36024;47.974;16.398;2023-09-19T08:04:22;2.90;;;1.17;;
50126;SDS011;36024;47.974;16.398;2023-09-19T08:06:54;1.02;;;0.82;;
50126;SDS011;36024;47.974;16.398;2023-09-19T08:09:23;2.17;;;1.20;;
50126;SDS011;36024;47.974;16.398;2023-09-19T08:11:52;1.30;;;1.20;;
50126;SDS011;36024;47.974;16.398;2023-09-19T08:14:20;1.23;;;1.13;;
50126;SDS011;36024;47.974;16.398;2023-09-19T08:16:49;2.05;;;1.15;;
50126;SDS011;36024;47.974;16.398;2023-09-19T08:19:22;2.53;;;1.20;;
50126;SDS011;36024;47.974;16.398;2023-09-19T08:21:55;1.83;;;1.23;;
50126;SDS011;36024;47.974;16.398;2023-09-19T08:24:27;1.35;;;1.00;;
50126;SDS011;36024;47.974;16.398;2023-09-19T08:27:00;1.85;;;1.13;;
50126;SDS011;36024;47.974;16.398;2023-09-19T08:29:33;1.25;;;0.98;;
50126;SDS011;36024;47.974;16.398;2023-09-19T08:32:05;1.70;;;1.08;;
50126;SDS011;36024;47.974;16.398;2023-09-19T08:34:32;1.95;;;1.20;;
50126;SDS011;36024;47.974;16.398;2023-09-19T08:37:01;2.22;;;1.23;;
50126;SDS011;36024;47.974;16.398;2023-09-19T08:39:31;2.65;;;1.20;;
50126;SDS011;36024;47.974;16.398;2023-09-19T08:42:01;1.70;;;1.20;;
50126;SDS011;36024;47.974;16.398;2023-09-19T08:44:28;1.75;;;1.10;;
50126;SDS011;36024;47.974;16.398;2023-09-19T08:47:06;1.17;;;1.00;;
50126;SDS011;36024;47.974;16.398;2023-09-19T08:50:00;1.70;;;1.10;;
50126;SDS011;36024;47.974;16.398;2023-09-19T08:52:32;4.95;;;1.27;;
50126;SDS011;36024;47.974;16.398;2023-09-19T08:55:04;3.15;;;1.20;;
50126;SDS011;36024;47.974;16.398;2023-09-19T08:57:39;1.90;;;1.10;;
50126;SDS011;36024;47.974;16.398;2023-09-19T09:00:16;1.25;;;1.00;;
50126;SDS011;36024;47.974;16.398;2023-09-19T09:02:45;1.83;;;1.20;;
50126;SDS011;36024;47.974;16.398;2023-09-19T09:05:14;1.50;;;1.13;;
50126;SDS011;36024;47.974;16.398;2023-09-19T09:07:43;1.92;;;1.27;;
50126;SDS011;36024;47.974;16.398;2023-09-19T09:10:12;1.17;;;1.08;;
50126;SDS011;36024;47.974;16.398;2023-09-19T09:12:40;2.08;;;1.00;;
50126;SDS011;36024;47.974;16.398;2023-09-19T09:15:13;1.17;;;1.08;;
50126;SDS011;36024;47.974;16.398;2023-09-19T09:17:44;1.67;;;1.08;;
50126;SDS011;36024;47.974;16.398;2023-09-19T09:20:17;2.40;;;1.20;;
50126;SDS011;36024;47.974;16.398;2023-09-19T09:22:52;2.42;;;1.00;;
50126;SDS011;36024;47.974;16.398;2023-09-19T09:25:48;2.58;;;1.30;;
50126;SDS011;36024;47.974;16.398;2023-09-19T09:28:31;2.42;;;1.17;;
50126;SDS011;36024;47.974;16.398;2023-09-19T09:31:00;1.55;;;1.00;;
50126;SDS011;36024;47.974;16.398;2023-09-19T09:33:40;2.42;;;1.25;;
50126;SDS011;36024;47.974;16.398;2023-09-19T09:36:12;2.55;;;1.15;;
50126;SDS011;36024;47.974;16.398;2023-09-19T09:38:52;2.47;;;1.08;;
50126;SDS011;36024;47.974;16.398;2023-09-19T09:41:24;1.85;;;1.23;;
50126;SDS011;36024;47.974;16.398;2023-09-19T09:44:15;1.60;;;0.95;;
50126;SDS011;36024;47.974;16.398;2023-09-19T09:46:48;2.28;;;1.00;;
50126;SDS011;36024;47.974;16.398;2023-09-19T09:49:24;2.53;;;1.02;;
50126;SDS011;36024;47.974;16.398;2023-09-19T09:52:02;4.03;;;0.93;;
50126;SDS011;36024;47.974;16.398;2023-09-19T09:55:00;1.35;;;0.90;;
50126;SDS011;36024;47.974;16.398;2023-09-19T09:57:34;1.02;;;0.90;;
50126;SDS011;36024;47.974;16.398;2023-09-19T10:00:02;1.65;;;1.00;;
50126;SDS011;36024;47.974;16.398;2023-09-19T10:02:50;1.67;;;1.00;;
50126;SDS011;36024;47.974;16.398;2023-09-19T10:05:19;2.42;;;1.10;;
50126;SDS011;36024;47.974;16.398;2023-09-19T10:07:49;2.03;;;1.00;;
50126;SDS011;36024;47.974;16.398;2023-09-19T10:10:31;1.02;;;0.80;;
50126;SDS011;36024;47.974;16.398;2023-09-19T10:13:28;1.15;;;1.00;;
50126;SDS011;36024;47.974;16.398;2023-09-19T10:16:05;1.38;;;1.00;;
50126;SDS011;36024;47.974;16.398;2023-09-19T10:18:37;1.08;;;0.98;;
50126;SDS011;36024;47.974;16.398;2023-09-19T10:21:08;1.55;;;0.93;;
50126;SDS011;36024;47.974;16.398;2023-09-19T10:23:39;1.40;;;1.00;;
50126;SDS011;36024;47.974;16.398;2023-09-19T10:26:10;1.45;;;1.27;;
50126;SDS011;36024;47.974;16.398;2023-09-19T10:28:46;1.50;;;1.00;;
50126;SDS011;36024;47.974;16.398;2023-09-19T10:31:18;1.63;;;1.00;;
50126;SDS011;36024;47.974;16.398;2023-09-19T10:33:48;2.30;;;1.10;;
50126;SDS011;36024;47.974;16.398;2023-09-19T10:36:16;1.63;;;1.00;;
50126;SDS011;36024;47.974;16.398;2023-09-19T10:38:49;1.75;;;1.00;;
50126;SDS011;36024;47.974;16.398;2023-09-19T10:41:22;1.55;;;1.00;;
50126;SDS011;36024;47.974;16.398;2023-09-19T10:44:04;1.10;;;0.88;;
50126;SDS011;36024;47.974;16.398;2023-09-19T10:46:33;1.33;;;1.02;;
50126;SDS011;36024;47.974;16.398;2023-09-19T10:49:08;0.80;;;0.80;;
50126;SDS011;36024;47.974;16.398;2023-09-19T10:51:39;1.90;;;0.88;;
50126;SDS011;36024;47.974;16.398;2023-09-19T10:54:15;3.92;;;0.98;;
50126;SDS011;36024;47.974;16.398;2023-09-19T10:56:49;1.33;;;1.02;;
50126;SDS011;36024;47.974;16.398;2023-09-19T10:59:21;2.03;;;0.80;;
50126;SDS011;36024;47.974;16.398;2023-09-19T11:01:56;0.98;;;0.85;;
50126;SDS011;36024;47.974;16.398;2023-09-19T11:04:29;0.70;;;0.70;;
50126;SDS011;36024;47.974;16.398;2023-09-19T11:07:03;1.45;;;0.93;;
50126;SDS011;36024;47.974;16.398;2023-09-19T11:09:51;1.75;;;0.90;;
50126;SDS011;36024;47.974;16.398;2023-09-19T11:16:02;2.17;;;0.70;;
50126;SDS011;36024;47.974;16.398;2023-09-19T11:25:00;1.60;;;1.02;;
50126;SDS011;36024;47.974;16.398;2023-09-19T11:27:08;1.80;;;1.00;;
50126;SDS011;36024;47.974;16.398;2023-09-19T11:29:39;1.00;;;0.90;;
50126;SDS011;36024;47.974;16.398;2023-09-19T11:32:07;1.35;;;0.90;;
50126;SDS011;36024;47.974;16.398;2023-09-19T11:42:47;0.80;;;0.80;;
50126;SDS011;36024;47.974;16.398;2023-09-19T11:48:24;1.08;;;0.85;;
50126;SDS011;36024;47.974;16.398;2023-09-19T11:50:55;1.65;;;1.02;;
50126;SDS011;36024;47.974;16.398;2023-09-19T11:53:30;1.30;;;0.75;;
50126;SDS011;36024;47.974;16.398;2023-09-19T11:56:00;1.08;;;0.80;;
50126;SDS011;36024;47.974;16.398;2023-09-19T11:58:27;1.55;;;0.90;;
50126;SDS011;36024;47.974;16.398;2023-09-19T12:00:57;1.45;;;0.90;;
50126;SDS011;36024;47.974;16.398;2023-09-19T12:03:33;1.45;;;0.90;;
50126;SDS011;36024;47.974;16.398;2023-09-19T12:06:03;1.17;;;0.98;;
50126;SDS011;36024;47.974;16.398;2023-09-19T12:08:39;1.90;;;0.70;;
50126;SDS011;36024;47.974;16.398;2023-09-19T12:11:13;0.75;;;0.75;;
50126;SDS011;36024;47.974;16.398;2023-09-19T12:13:45;1.42;;;1.08;;
50126;SDS011;36024;47.974;16.398;2023-09-19T12:16:16;2.70;;;1.17;;
50126;SDS011;36024;47.974;16.398;2023-09-19T12:18:50;1.73;;;0.90;;
50126;SDS011;36024;47.974;16.398;2023-09-19T12:21:28;1.90;;;0.90;;
50126;SDS011;36024;47.974;16.398;2023-09-19T12:24:11;1.42;;;1.00;;
50126;SDS011;36024;47.974;16.398;2023-09-19T12:26:46;1.38;;;0.88;;
50126;SDS011;36024;47.974;16.398;2023-09-19T12:29:26;1.30;;;1.08;;
50126;SDS011;36024;47.974;16.398;2023-09-19T12:31:54;1.38;;;1.10;;
50126;SDS011;36024;47.974;16.398;2023-09-19T12:34:32;0.82;;;0.82;;
50126;SDS011;36024;47.974;16.398;2023-09-19T12:37:14;1.27;;;1.00;;
50126;SDS011;36024;47.974;16.398;2023-09-19T12:39:53;0.90;;;0.90;;
50126;SDS011;36024;47.974;16.398;2023-09-19T12:42:25;1.38;;;1.17;;
50126;SDS011;36024;47.974;16.398;2023-09-19T12:45:01;1.40;;;0.93;;
50126;SDS011;36024;47.974;16.398;2023-09-19T12:47:36;1.08;;;0.90;;
50126;SDS011;36024;47.974;16.398;2023-09-19T12:50:14;1.10;;;1.00;;
50126;SDS011;36024;47.974;16.398;2023-09-19T12:52:46;1.20;;;1.10;;
50126;SDS011;36024;47.974;16.398;2023-09-19T12:55:22;1.38;;;0.90;;
50126;SDS011;36024;47.974;16.398;2023-09-19T13:00:37;1.92;;;0.90;;
50126;SDS011;36024;47.974;16.398;2023-09-19T13:03:11;1.58;;;1.00;;
50126;SDS011;36024;47.974;16.398;2023-09-19T13:05:47;1.40;;;0.85;;
50126;SDS011;36024;47.974;16.398;2023-09-19T13:08:20;1.60;;;0.90;;
50126;SDS011;36024;47.974;16.398;2023-09-19T13:11:03;0.75;;;0.70;;
50126;SDS011;36024;47.974;16.398;2023-09-19T13:13:34;0.85;;;0.77;;
50126;SDS011;36024;47.974;16.398;2023-09-19T13:16:26;0.90;;;0.82;;
50126;SDS011;36024;47.974;16.398;2023-09-19T13:18:55;1.75;;;0.68;;
50126;SDS011;36024;47.974;16.398;2023-09-19T13:21:29;1.17;;;0.85;;
50126;SDS011;36024;47.974;16.398;2023-09-19T13:24:20;1.42;;;0.70;;
50126;SDS011;36024;47.974;16.398;2023-09-19T13:26:56;2.15;;;0.93;;
50126;SDS011;36024;47.974;16.398;2023-09-19T13:29:24;0.93;;;0.82;;
50126;SDS011;36024;47.974;16.398;2023-09-19T13:31:54;1.40;;;0.73;;
50126;SDS011;36024;47.974;16.398;2023-09-19T13:34:22;1.38;;;0.70;;
50126;SDS011;36024;47.974;16.398;2023-09-19T13:36:52;0.75;;;0.70;;
50126;SDS011;36024;47.974;16.398;2023-09-19T13:39:19;1.13;;;0.77;;
50126;SDS011;36024;47.974;16.398;2023-09-19T13:41:47;0.82;;;0.70;;
50126;SDS011;36024;47.974;16.398;2023-09-19T13:44:17;1.42;;;0.70;;
50126;SDS011;36024;47.974;16.398;2023-09-19T13:46:47;1.98;;;0.80;;
50126;SDS011;36024;47.974;16.398;2023-09-19T13:49:16;1.60;;;0.77;;
50126;SDS011;36024;47.974;16.398;2023-09-19T13:51:49;2.35;;;0.80;;
50126;SDS011;36024;47.974;16.398;2023-09-19T13:54:20;1.40;;;0.90;;
50126;SDS011;36024;47.974;16.398;2023-09-19T13:56:49;0.73;;;0.73;;
50126;SDS011;36024;47.974;16.398;2023-09-19T13:59:22;1.75;;;0.90;;
50126;SDS011;36024;47.974;16.398;2023-09-19T14:01:55;0.80;;;0.80;;
50126;SDS011;36024;47.974;16.398;2023-09-19T14:04:24;1.10;;;0.98;;
50126;SDS011;36024;47.974;16.398;2023-09-19T14:06:53;1.85;;;0.80;;
50126;SDS011;36024;47.974;16.398;2023-09-19T14:09:22;0.93;;;0.90;;
50126;SDS011;36024;47.974;16.398;2023-09-19T14:11:52;0.82;;;0.80;;
50126;SDS011;36024;47.974;16.398;2023-09-19T14:14:24;0.90;;;0.68;;
50126;SDS011;36024;47.974;16.398;2023-09-19T14:16:56;1.23;;;0.80;;
50126;SDS011;36024;47.974;16.398;2023-09-19T14:19:31;0.80;;;0.80;;
50126;SDS011;36024;47.974;16.398;2023-09-19T14:22:05;1.27;;;0.88;;
50126;SDS011;36024;47.974;16.398;2023-09-19T14:24:40;1.20;;;0.85;;
50126;SDS011;36024;47.974;16.398;2023-09-19T14:27:09;1.58;;;0.80;;
50126;SDS011;36024;47.974;16.398;2023-09-19T14:29:37;1.17;;;0.90;;
50126;SDS011;36024;47.974;16.398;2023-09-19T14:32:08;0.60;;;0.60;;
50126;SDS011;36024;47.974;16.398;2023-09-19T14:34:37;1.83;;;0.80;;
50126;SDS011;36024;47.974;16.398;2023-09-19T14:37:09;1.13;;;0.80;;
50126;SDS011;36024;47.974;16.398;2023-09-19T14:39:40;3.75;;;1.20;;
50126;SDS011;36024;47.974;16.398;2023-09-19T14:42:15;2.85;;;0.90;;
50126;SDS011;36024;47.974;16.398;2023-09-19T14:44:48;0.90;;;0.80;;
50126;SDS011;36024;47.974;16.398;2023-09-19T14:47:16;1.30;;;0.85;;
50126;SDS011;36024;47.974;16.398;2023-09-19T14:49:45;0.80;;;0.75;;
50126;SDS011;36024;47.974;16.398;2023-09-19T14:52:18;1.10;;;0.85;;
50126;SDS011;36024;47.974;16.398;2023-09-19T14:54:46;1.75;;;0.90;;
50126;SDS011;36024;47.974;16.398;2023-09-19T14:57:14;1.48;;;0.80;;
50126;SDS011;36024;47.974;16.398;2023-09-19T14:59:43;0.77;;;0.70;;
50126;SDS011;36024;47.974;16.398;2023-09-19T15:02:10;0.80;;;0.80;;
50126;SDS011;36024;47.974;16.398;2023-09-19T15:04:39;0.90;;;0.80;;
50126;SDS011;36024;47.974;16.398;2023-09-19T15:07:16;1.00;;;0.88;;
50126;SDS011;36024;47.974;16.398;2023-09-19T15:09:52;1.33;;;0.80;;
50126;SDS011;36024;47.974;16.398;2023-09-19T15:12:36;0.82;;;0.70;;
50126;SDS011;36024;47.974;16.398;2023-09-19T15:15:05;0.70;;;0.70;;
50126;SDS011;36024;47.974;16.398;2023-09-19T15:17:40;1.48;;;0.70;;
50126;SDS011;36024;47.974;16.398;2023-09-19T15:20:08;1.00;;;0.90;;
50126;SDS011;36024;47.974;16.398;2023-09-19T15:22:41;1.95;;;0.90;;
50126;SDS011;36024;47.974;16.398;2023-09-19T15:25:15;1.23;;;0.60;;
50126;SDS011;36024;47.974;16.398;2023-09-19T15:27:50;1.20;;;0.68;;
50126;SDS011;36024;47.974;16.398;2023-09-19T15:30:23;1.42;;;0.70;;
50126;SDS011;36024;47.974;16.398;2023-09-19T15:32:54;2.92;;;0.70;;
50126;SDS011;36024;47.974;16.398;2023-09-19T15:35:24;0.90;;;0.60;;
50126;SDS011;36024;47.974;16.398;2023-09-19T15:37:53;0.68;;;0.60;;
50126;SDS011;36024;47.974;16.398;2023-09-19T15:40:26;0.60;;;0.60;;
50126;SDS011;36024;47.974;16.398;2023-09-19T15:42:55;1.95;;;0.70;;